Terminal Aerodrome Forecast
Issued by NWS

Home | Current Version | Previous Version | Graphics & Text | Print | Product List | Glossary On
Versions: 1 2 3 4 5 6 7 8 9 10 11 12 13 14 15 16 17 18 19 20 21 22 23 24 25 26 27 28 29
594
FTUS43 KLOT 241500 AAB
TAFORD
TAF AMD
KORD 241500Z 2415/2518 19010G16KT 6SM -SHRA BR VCTS SCT007CB OVC010
      TEMPO 2415/2417 3SM SHRA BR OVC007
     FM241700 20011G18KT P6SM BKN015
     FM241900 21012G19KT P6SM BKN035
     FM250000 22008KT P6SM SCT035 BKN100 PROB30 2504/2510 3SM TSRA
      OVC025CB
     FM251500 26008KT P6SM VCSH BKN035=

USA.gov is the U.S. government's official web portal to all federal, state and local government web resources and services.